Miami, Florida
Traffic Map
Current Weather Conditions
Miami, Florida
Scattered Clouds
Scattered Clouds
80°
Feels Like: 81°
Wind Chill: 80° Ceiling: Unl
Heat Index: 81° Visibility: 10mi
Dew Point: 63° Wind: 10mph
Humidity: 56% Direction: 120° (ESE)
Pressure: 30.11in Gusts: 20mph
Raw Report DataKMIA 041953Z 12009G17KT 10SM SCT028 SCT035 27/17 A3011 RMK AO2 SLP196 T02670172
Traffic Incident Summary
Active as of:
Severity:
Category:
InformationThere was an issue retrieving the traffic information for this location. Please try a different location or try again shortly.
Advertisements
Track Severe Weather on mobile